Time;durP1;ratioP1;P1;durP2;ratioP2;P2;SDS_P1;SDS_P2;PMS_P1;PMS_P2;Temp;Humidity;BMP_temperature;BMP_pressure;BME280_temperature;BME280_humidity;BME280_pressure;Samples;Min_cycle;Max_cycle;Signal;HPM_P1;HPM_P2
2021/06/09 00:02:11;;;;;;;2.80;2.50;;;15.20;99.90;;;;;;5057555;28;20025;-63
2021/06/09 00:04:37;;;;;;;5.38;3.60;;;15.20;99.90;;;;;;5057854;28;20481;-63
2021/06/09 00:07:03;;;;;;;3.90;2.88;;;15.10;99.90;;;;;;5057180;28;20036;-63
2021/06/09 00:09:29;;;;;;;3.50;3.20;;;15.00;99.90;;;;;;5056909;28;20481;-62
2021/06/09 00:11:55;;;;;;;4.03;3.55;;;15.00;99.90;;;;;;5057265;28;20021;-63
2021/06/09 00:14:21;;;;;;;5.03;3.20;;;14.90;99.90;;;;;;5057255;28;20021;-62
2021/06/09 00:16:47;;;;;;;2.70;2.50;;;14.90;99.90;;;;;;5056950;28;20013;-63
2021/06/09 00:19:14;;;;;;;2.90;2.70;;;15.00;99.90;;;;;;5057332;28;20058;-63
2021/06/09 00:21:46;;;;;;;2.70;2.47;;;15.00;99.90;;;;;;5056957;28;20477;-63
2021/06/09 00:24:13;;;;;;;2.33;2.22;;;15.00;99.90;;;;;;5056895;28;20084;-63
2021/06/09 00:26:39;;;;;;;3.15;2.88;;;15.00;99.90;;;;;;5056849;28;20040;-63
2021/06/09 00:29:05;;;;;;;3.72;2.40;;;15.00;99.90;;;;;;5057383;28;20029;-63
2021/06/09 00:31:31;;;;;;;2.65;2.30;;;14.90;99.90;;;;;;5056849;28;20025;-63
2021/06/09 00:33:57;;;;;;;2.97;2.78;;;14.90;99.90;;;;;;5057024;28;20474;-63
2021/06/09 00:36:23;;;;;;;4.95;3.17;;;14.80;99.90;;;;;;5056721;28;20029;-63
2021/06/09 00:38:49;;;;;;;3.90;3.08;;;14.90;99.90;;;;;;5056927;28;20059;-63
2021/06/09 00:41:15;;;;;;;3.47;2.85;;;14.70;99.90;;;;;;5056540;28;20029;-63
2021/06/09 00:43:41;;;;;;;3.08;2.88;;;14.70;99.90;;;;;;5057052;28;20051;-62
2021/06/09 00:46:10;;;;;;;3.90;3.60;;;14.70;99.90;;;;;;5056703;28;20469;-63
2021/06/09 00:48:42;;;;;;;3.92;3.63;;;14.60;99.90;;;;;;5057181;28;20029;-63
2021/06/09 00:51:14;;;;;;;3.20;2.83;;;14.70;99.90;;;;;;5056884;28;20096;-63
2021/06/09 00:53:47;;;;;;;3.58;3.28;;;14.60;99.90;;;;;;5056577;28;20029;-63
2021/06/09 00:56:13;;;;;;;3.80;2.60;;;14.60;99.90;;;;;;5056190;28;20029;-63
2021/06/09 00:58:41;;;;;;;3.13;2.83;;;14.60;99.90;;;;;;5056680;28;20032;-63
2021/06/09 01:01:09;;;;;;;2.92;2.65;;;14.60;99.90;;;;;;5056533;28;20545;-63
2021/06/09 01:03:35;;;;;;;3.72;3.35;;;14.50;99.90;;;;;;5056921;28;20470;-63
2021/06/09 01:06:03;;;;;;;2.85;2.65;;;14.50;99.90;;;;;;5056715;28;20033;-63
2021/06/09 01:08:39;;;;;;;3.45;2.75;;;14.50;99.90;;;;;;5056302;28;20439;-63
2021/06/09 01:11:07;;;;;;;3.80;3.15;;;14.60;99.90;;;;;;5056301;28;20029;-63
2021/06/09 01:13:33;;;;;;;5.18;3.65;;;14.60;99.90;;;;;;5056458;28;20036;-63
2021/06/09 01:16:00;;;;;;;3.70;3.40;;;14.70;99.90;;;;;;5056408;28;20036;-63
2021/06/09 01:18:27;;;;;;;3.85;3.22;;;14.60;99.90;;;;;;5056188;28;20055;-63
2021/06/09 01:20:54;;;;;;;3.67;3.25;;;14.60;99.90;;;;;;5056755;28;20075;-63
2021/06/09 01:23:20;;;;;;;3.78;3.38;;;14.70;99.90;;;;;;5058904;28;20037;-63
2021/06/09 01:25:47;;;;;;;4.90;3.60;;;14.60;99.90;;;;;;5060214;28;20025;-63
2021/06/09 01:28:13;;;;;;;4.00;3.60;;;14.60;99.90;;;;;;5060375;28;20036;-63
2021/06/09 01:30:39;;;;;;;5.28;4.13;;;14.60;99.90;;;;;;5060529;28;20021;-63
2021/06/09 01:33:06;;;;;;;5.82;4.55;;;14.70;99.90;;;;;;5060454;28;20170;-63
2021/06/09 01:35:33;;;;;;;6.90;4.72;;;14.70;99.90;;;;;;5060219;28;20028;-63
2021/06/09 01:38:00;;;;;;;5.80;4.40;;;14.70;99.90;;;;;;5060192;28;20033;-63
2021/06/09 01:40:26;;;;;;;5.70;5.20;;;14.70;99.90;;;;;;5060057;28;20021;-63
2021/06/09 01:42:54;;;;;;;7.55;4.65;;;14.60;99.90;;;;;;5060060;28;20485;-63
2021/06/09 01:45:22;;;;;;;5.82;4.85;;;14.70;99.90;;;;;;5060334;28;20057;-63
2021/06/09 01:47:49;;;;;;;9.23;4.57;;;14.80;99.90;;;;;;5059965;28;20090;-63
2021/06/09 01:50:16;;;;;;;5.57;4.20;;;14.70;99.90;;;;;;5060245;28;20017;-63
2021/06/09 01:52:46;;;;;;;7.45;6.25;;;14.80;99.90;;;;;;5059903;28;20025;-63
2021/06/09 01:55:13;;;;;;;9.48;6.95;;;14.70;99.90;;;;;;5059772;28;20013;-66
2021/06/09 01:57:39;;;;;;;8.48;5.85;;;14.70;99.90;;;;;;5059861;28;20033;-63
2021/06/09 02:00:20;;;;;;;9.90;6.63;;;14.80;99.90;;;;;;5060151;28;20504;-63
2021/06/09 02:02:46;;;;;;;5.88;5.28;;;14.80;99.90;;;;;;5059830;28;20032;-63
2021/06/09 02:05:13;;;;;;;5.63;5.05;;;14.80;99.90;;;;;;5059945;28;20020;-63
2021/06/09 02:07:42;;;;;;;5.03;4.53;;;14.80;99.90;;;;;;5059749;28;20032;-63
2021/06/09 02:10:19;;;;;;;7.47;5.97;;;14.80;99.90;;;;;;5059614;28;20031;-63
2021/06/09 02:12:48;;;;;;;7.18;5.93;;;14.90;99.90;;;;;;5058333;28;20112;-63
2021/06/09 02:15:18;;;;;;;7.50;6.78;;;14.90;99.90;;;;;;5059302;28;20021;-63
2021/06/09 02:18:08;;;;;;;7.95;7.10;;;14.90;99.90;;;;;;5059660;28;20060;-63
2021/06/09 02:20:35;;;;;;;6.63;5.93;;;14.80;99.90;;;;;;5059722;28;20056;-63
2021/06/09 02:23:01;;;;;;;8.32;7.10;;;14.70;99.90;;;;;;5059188;28;20086;-63
2021/06/09 02:25:28;;;;;;;9.68;5.60;;;14.70;99.90;;;;;;5058975;28;20029;-63
2021/06/09 02:27:54;;;;;;;6.90;5.28;;;14.80;99.90;;;;;;5059191;28;20489;-63
2021/06/09 02:30:20;;;;;;;7.60;6.32;;;14.80;99.90;;;;;;5059220;28;20056;-63
2021/06/09 02:32:46;;;;;;;6.68;5.78;;;14.80;99.90;;;;;;5059103;28;20048;-63
2021/06/09 02:35:21;;;;;;;6.57;5.97;;;14.70;99.90;;;;;;5059311;28;20029;-63
2021/06/09 02:37:52;;;;;;;7.38;5.85;;;14.80;99.90;;;;;;5059250;28;20029;-63
2021/06/09 02:40:19;;;;;;;7.30;5.72;;;14.70;99.90;;;;;;5059041;28;20025;-63
2021/06/09 02:42:45;;;;;;;5.50;4.90;;;14.70;99.90;;;;;;5059166;28;20029;-63
2021/06/09 02:45:15;;;;;;;7.38;6.68;;;14.70;99.90;;;;;;5059074;28;20082;-63
2021/06/09 02:47:49;;;;;;;7.13;5.30;;;14.80;99.90;;;;;;5058994;28;20040;-63
2021/06/09 02:50:17;;;;;;;8.50;7.20;;;14.80;99.90;;;;;;5058991;28;20024;-63
2021/06/09 02:53:06;;;;;;;6.80;6.13;;;14.70;99.90;;;;;;5058982;28;20071;-63
2021/06/09 02:56:00;;;;;;;6.55;5.95;;;14.70;99.90;;;;;;5057900;28;20040;-63
2021/06/09 02:58:43;;;;;;;6.97;5.70;;;14.70;99.90;;;;;;5058941;28;20112;-63
2021/06/09 03:01:39;;;;;;;11.45;5.95;;;14.60;99.90;;;;;;5058890;28;20028;-63
2021/06/09 03:04:10;;;;;;;5.40;3.92;;;14.70;99.90;;;;;;5058839;28;20028;-63
2021/06/09 03:06:49;;;;;;;4.30;3.90;;;14.60;99.90;;;;;;5058688;28;20021;-63
2021/06/09 03:09:38;;;;;;;6.78;5.28;;;14.60;99.90;;;;;;5057986;28;20025;-63
2021/06/09 03:12:26;;;;;;;5.57;4.95;;;14.60;99.90;;;;;;5058573;28;20028;-63
2021/06/09 03:18:16;;;;;;;5.75;5.15;;;14.60;99.90;;;;;;5058444;28;20053;-63
2021/06/09 03:21:00;;;;;;;5.70;5.20;;;14.60;99.90;;;;;;5058300;28;20036;-63
2021/06/09 03:23:52;;;;;;;15.43;7.03;;;14.60;99.90;;;;;;5058066;28;20464;-63
2021/06/09 03:26:39;;;;;;;6.32;5.35;;;14.60;99.90;;;;;;5057983;28;20112;-63
2021/06/09 03:29:27;;;;;;;6.85;6.10;;;14.50;99.90;;;;;;5058622;28;20025;-62
2021/06/09 03:31:58;;;;;;;6.78;5.60;;;14.30;99.90;;;;;;5058046;28;20017;-63
2021/06/09 03:34:30;;;;;;;5.57;5.00;;;14.30;99.90;;;;;;5058095;28;20096;-63
2021/06/09 03:37:00;;;;;;;6.05;5.45;;;14.30;99.90;;;;;;5057914;28;20129;-63
2021/06/09 03:39:28;;;;;;;5.32;4.82;;;14.10;99.90;;;;;;5057859;28;20036;-63
2021/06/09 03:41:57;;;;;;;5.78;5.05;;;14.00;99.90;;;;;;5057974;28;20095;-63
2021/06/09 03:44:36;;;;;;;4.85;4.20;;;14.00;99.90;;;;;;5057553;28;20028;-63
2021/06/09 03:47:04;;;;;;;6.75;6.15;;;13.90;99.90;;;;;;5057631;28;20053;-63
2021/06/09 03:49:31;;;;;;;6.07;5.28;;;13.80;99.90;;;;;;5057644;28;20029;-63
2021/06/09 03:51:59;;;;;;;5.03;4.57;;;13.70;99.90;;;;;;5058081;28;20032;-63
2021/06/09 03:54:29;;;;;;;6.20;5.05;;;13.70;99.90;;;;;;5057212;28;20536;-63
2021/06/09 03:56:59;;;;;;;5.38;4.53;;;13.60;99.90;;;;;;5057533;28;20063;-63
2021/06/09 03:59:26;;;;;;;8.57;6.00;;;13.50;99.90;;;;;;5057718;28;20107;-63
2021/06/09 04:01:55;;;;;;;5.82;5.22;;;13.40;99.90;;;;;;5057857;28;20025;-63
2021/06/09 04:04:21;;;;;;;6.65;4.95;;;13.40;99.90;;;;;;5057436;28;20496;-63
2021/06/09 04:06:50;;;;;;;6.15;5.50;;;13.50;99.90;;;;;;5057550;28;20033;-63
2021/06/09 04:09:19;;;;;;;5.10;4.57;;;13.20;99.90;;;;;;5056911;28;20091;-63
2021/06/09 04:11:54;;;;;;;6.70;5.53;;;13.30;99.90;;;;;;5057315;28;20029;-63
2021/06/09 04:14:23;;;;;;;6.75;4.00;;;13.20;99.90;;;;;;5057265;28;20028;-63
2021/06/09 04:16:52;;;;;;;4.97;4.57;;;13.20;99.90;;;;;;5057045;28;20108;-63
2021/06/09 04:19:22;;;;;;;7.45;4.78;;;13.10;99.90;;;;;;5057513;28;20025;-63
2021/06/09 04:21:48;;;;;;;6.15;5.55;;;13.10;99.90;;;;;;5056935;28;20032;-63
2021/06/09 04:24:14;;;;;;;5.68;5.10;;;13.10;99.90;;;;;;5055344;28;20079;-63
2021/06/09 04:26:41;;;;;;;6.43;5.07;;;13.00;99.90;;;;;;5056930;28;20439;-63
2021/06/09 04:29:08;;;;;;;6.85;5.25;;;13.00;99.90;;;;;;5057624;28;20040;-62
2021/06/09 04:31:35;;;;;;;8.93;5.10;;;13.10;99.90;;;;;;5057091;28;20021;-63
2021/06/09 04:34:01;;;;;;;5.15;4.75;;;12.90;99.90;;;;;;5056986;28;20048;-62
2021/06/09 04:36:27;;;;;;;5.85;4.57;;;12.90;99.90;;;;;;5056721;28;20025;-63
2021/06/09 04:38:54;;;;;;;5.25;4.72;;;12.90;99.90;;;;;;5056899;28;20029;-63
2021/06/09 04:41:21;;;;;;;5.10;4.70;;;12.90;99.90;;;;;;5056599;28;20504;-63
2021/06/09 04:43:47;;;;;;;6.65;5.75;;;12.80;99.90;;;;;;5056978;28;20024;-63
2021/06/09 04:46:22;;;;;;;5.68;5.18;;;12.90;99.90;;;;;;5056502;28;20028;-63
2021/06/09 04:49:04;;;;;;;5.40;4.90;;;12.80;99.90;;;;;;5057041;28;20025;-63
2021/06/09 04:51:32;;;;;;;6.78;4.65;;;12.80;99.90;;;;;;5056861;28;20041;-63
2021/06/09 04:54:00;;;;;;;4.43;4.03;;;13.00;99.90;;;;;;5056808;28;20060;-63
2021/06/09 04:56:31;;;;;;;4.95;4.45;;;13.10;99.90;;;;;;5055787;28;20104;-63
2021/06/09 04:58:59;;;;;;;4.22;3.72;;;13.10;99.90;;;;;;5056479;28;20025;-63
2021/06/09 05:01:25;;;;;;;5.55;4.43;;;13.10;99.90;;;;;;5056761;28;20028;-63
2021/06/09 05:03:50;;;;;;;6.55;4.05;;;13.20;99.90;;;;;;5056456;28;20032;-63
2021/06/09 05:06:16;;;;;;;5.05;4.50;;;13.30;99.90;;;;;;5056492;28;20017;-63
2021/06/09 05:08:42;;;;;;;5.18;4.60;;;13.50;99.90;;;;;;5056475;28;20036;-63
2021/06/09 05:11:15;;;;;;;5.13;4.45;;;13.60;99.90;;;;;;5042329;28;20025;-64
2021/06/09 05:13:43;;;;;;;4.05;3.67;;;13.80;99.90;;;;;;5049459;28;20055;-63
2021/06/09 05:16:12;;;;;;;4.28;3.95;;;13.80;99.90;;;;;;5055255;28;20520;-64
2021/06/09 05:18:44;;;;;;;6.32;3.38;;;14.10;99.90;;;;;;5055985;28;20040;-64
2021/06/09 05:21:10;;;;;;;4.28;3.75;;;14.20;99.90;;;;;;5056320;28;20036;-64
2021/06/09 05:23:42;;;;;;;5.63;4.70;;;14.40;99.90;;;;;;5056047;28;20041;-64
2021/06/09 05:26:11;;;;;;;4.40;4.00;;;14.60;99.90;;;;;;5057968;28;20036;-63
2021/06/09 05:28:46;;;;;;;6.82;3.72;;;14.90;99.90;;;;;;5056856;28;20092;-64
2021/06/09 05:31:13;;;;;;;4.13;3.83;;;15.00;99.90;;;;;;5045922;28;20021;-63
2021/06/09 05:33:42;;;;;;;9.93;6.78;;;15.20;99.90;;;;;;5055035;28;20539;-64
2021/06/09 05:36:09;;;;;;;7.22;6.40;;;15.40;99.90;;;;;;5055103;28;20068;-64
2021/06/09 05:38:38;;;;;;;8.10;6.28;;;15.40;99.90;;;;;;5055808;28;20040;-64
2021/06/09 05:41:04;;;;;;;7.25;6.50;;;15.60;99.90;;;;;;5055886;28;20114;-64
2021/06/09 05:43:31;;;;;;;7.22;5.38;;;15.80;99.90;;;;;;5056116;28;20029;-64
2021/06/09 05:46:04;;;;;;;5.72;5.05;;;16.10;99.90;;;;;;5056164;28;20082;-64
2021/06/09 05:48:30;;;;;;;8.07;4.78;;;16.20;99.90;;;;;;5056066;28;20029;-64
2021/06/09 05:50:58;;;;;;;5.13;4.63;;;16.50;99.90;;;;;;5056202;28;20156;-64
2021/06/09 05:53:28;;;;;;;6.82;5.78;;;16.80;99.90;;;;;;5055879;28;20485;-64
2021/06/09 05:55:55;;;;;;;7.35;4.88;;;16.90;99.90;;;;;;5055977;28;20026;-64
2021/06/09 05:58:22;;;;;;;6.57;4.38;;;17.20;99.90;;;;;;5055896;28;20085;-64
2021/06/09 06:00:57;;;;;;;6.07;5.30;;;17.20;99.90;;;;;;5056052;28;20048;-64
2021/06/09 06:03:25;;;;;;;7.35;3.97;;;17.40;99.90;;;;;;5056174;28;20022;-64
2021/06/09 06:06:06;;;;;;;6.68;4.50;;;17.60;99.90;;;;;;5055837;28;20366;-64
2021/06/09 06:08:35;;;;;;;7.93;5.55;;;17.80;99.90;;;;;;5057225;28;20431;-64
2021/06/09 06:11:11;;;;;;;5.85;5.22;;;18.00;99.90;;;;;;5059604;28;20036;-64
2021/06/09 06:13:38;;;;;;;12.57;5.68;;;18.00;99.90;;;;;;5059732;28;20381;-64
2021/06/09 06:16:05;;;;;;;7.85;4.85;;;18.10;99.90;;;;;;5059607;28;20032;-64
2021/06/09 06:18:35;;;;;;;5.65;5.15;;;18.20;99.90;;;;;;5059339;28;20469;-64
2021/06/09 06:21:02;;;;;;;5.72;3.95;;;18.40;99.90;;;;;;5059507;28;20025;-65
2021/06/09 06:23:29;;;;;;;4.97;4.00;;;18.70;99.90;;;;;;5059085;28;20045;-64
2021/06/09 06:25:55;;;;;;;7.22;5.57;;;19.00;99.90;;;;;;5059203;28;20021;-64
2021/06/09 06:28:23;;;;;;;6.32;4.38;;;19.30;99.90;;;;;;5059163;28;20025;-64
2021/06/09 06:30:50;;;;;;;7.03;4.28;;;19.50;99.90;;;;;;5059402;28;20021;-65
2021/06/09 06:33:17;;;;;;;9.05;4.88;;;19.80;99.90;;;;;;5059248;28;20024;-65
2021/06/09 06:35:47;;;;;;;5.20;4.65;;;19.90;99.90;;;;;;5059259;28;20036;-65
2021/06/09 06:38:14;;;;;;;3.58;3.28;;;20.20;99.90;;;;;;5058963;28;20374;-65
2021/06/09 06:40:40;;;;;;;5.68;4.60;;;20.40;99.90;;;;;;5059082;28;20531;-64
2021/06/09 06:43:07;;;;;;;5.13;4.22;;;20.60;99.90;;;;;;5059309;28;20104;-65
2021/06/09 06:45:33;;;;;;;4.82;4.43;;;20.80;99.90;;;;;;5059258;28;20393;-65
2021/06/09 06:47:59;;;;;;;4.28;3.88;;;21.00;99.90;;;;;;5058894;28;20405;-65
2021/06/09 06:50:26;;;;;;;4.25;3.40;;;21.10;99.90;;;;;;5059211;28;20025;-65
2021/06/09 06:52:53;;;;;;;5.22;3.17;;;21.50;99.90;;;;;;5058851;28;20021;-64
2021/06/09 06:55:22;;;;;;;4.20;3.80;;;21.80;99.90;;;;;;5058506;28;20073;-65
2021/06/09 06:57:49;;;;;;;5.13;4.22;;;22.10;99.90;;;;;;5058649;28;20025;-65
2021/06/09 07:00:22;;;;;;;6.53;4.43;;;21.90;99.90;;;;;;5058985;28;20036;-65
2021/06/09 07:02:53;;;;;;;6.88;4.00;;;21.80;99.90;;;;;;5058887;28;20029;-65
2021/06/09 07:05:20;;;;;;;5.57;4.30;;;22.20;99.90;;;;;;5058560;28;20491;-65
2021/06/09 07:07:48;;;;;;;4.65;4.18;;;22.40;99.90;;;;;;5058769;28;20033;-65
2021/06/09 07:10:16;;;;;;;5.05;4.32;;;22.40;99.90;;;;;;5058324;28;20032;-65
2021/06/09 07:12:44;;;;;;;4.70;3.67;;;22.20;99.90;;;;;;5058778;28;20025;-65
2021/06/09 07:15:20;;;;;;;6.78;3.30;;;22.20;99.90;;;;;;5058335;28;20150;-65
2021/06/09 07:17:51;;;;;;;9.23;4.10;;;22.60;99.90;;;;;;5058595;28;20393;-65
2021/06/09 07:20:22;;;;;;;4.43;3.78;;;23.00;99.90;;;;;;5057550;28;20106;-65
2021/06/09 07:22:49;;;;;;;4.57;3.75;;;23.40;99.90;;;;;;5058534;28;20051;-65
2021/06/09 07:25:16;;;;;;;5.72;3.75;;;23.50;99.90;;;;;;5057567;28;20104;-65
2021/06/09 07:27:45;;;;;;;3.45;2.90;;;23.50;99.90;;;;;;5058066;28;20039;-65
2021/06/09 07:30:14;;;;;;;6.03;3.85;;;23.70;99.90;;;;;;5057977;28;20021;-65
2021/06/09 07:32:45;;;;;;;5.35;3.45;;;24.00;99.90;;;;;;5058251;28;20082;-65
2021/06/09 07:35:12;;;;;;;5.30;4.35;;;24.30;99.90;;;;;;5057766;28;20021;-65
2021/06/09 07:37:45;;;;;;;4.90;3.60;;;24.60;99.90;;;;;;5058030;28;20082;-65
2021/06/09 07:40:23;;;;;;;5.97;3.28;;;24.80;99.90;;;;;;5057628;28;20021;-65
2021/06/09 07:42:52;;;;;;;9.80;3.53;;;24.90;99.90;;;;;;5056527;28;20029;-65
2021/06/09 07:45:21;;;;;;;5.35;3.55;;;25.20;99.90;;;;;;5058105;28;20021;-65
2021/06/09 07:47:50;;;;;;;4.35;3.40;;;25.20;99.90;;;;;;5057663;28;20025;-65
2021/06/09 07:50:25;;;;;;;3.47;3.17;;;25.00;99.90;;;;;;5057922;28;20021;-65
2021/06/09 07:52:53;;;;;;;9.65;3.40;;;25.00;99.90;;;;;;5057645;28;20043;-65
2021/06/09 07:55:19;;;;;;;2.72;2.53;;;25.00;99.90;;;;;;5057519;28;20380;-65
2021/06/09 07:57:45;;;;;;;5.20;3.10;;;25.50;99.90;;;;;;5057759;28;20040;-65
2021/06/09 08:00:12;;;;;;;3.65;2.65;;;26.00;99.90;;;;;;5057897;28;20028;-65
2021/06/09 08:02:43;;;;;;;3.55;3.25;;;26.60;99.90;;;;;;5057681;28;20029;-65
2021/06/09 08:05:10;;;;;;;4.10;3.30;;;26.80;98.20;;;;;;5057488;28;20028;-65
2021/06/09 08:07:41;;;;;;;3.47;3.17;;;26.60;97.50;;;;;;5057724;28;20029;-65
2021/06/09 08:10:09;;;;;;;2.63;2.05;;;26.50;97.60;;;;;;5057244;28;20025;-65
2021/06/09 08:12:35;;;;;;;5.50;3.00;;;26.60;98.50;;;;;;5057729;28;20581;-65
2021/06/09 08:15:03;;;;;;;5.68;3.63;;;27.00;97.30;;;;;;5057356;28;20024;-65
2021/06/09 08:17:29;;;;;;;2.83;2.33;;;26.80;96.60;;;;;;5057224;28;20086;-65
2021/06/09 08:19:55;;;;;;;4.28;3.10;;;26.80;97.00;;;;;;5057417;28;20029;-65
2021/06/09 08:22:21;;;;;;;2.75;2.28;;;27.10;98.30;;;;;;5057311;28;20017;-65
2021/06/09 08:24:48;;;;;;;4.07;2.88;;;27.30;96.70;;;;;;5056650;28;20037;-65
2021/06/09 08:27:15;;;;;;;3.83;2.25;;;27.60;95.80;;;;;;5057069;28;20052;-65
2021/06/09 08:29:41;;;;;;;3.72;1.95;;;28.00;95.80;;;;;;5057303;28;20017;-65
2021/06/09 08:32:07;;;;;;;2.50;2.30;;;28.20;95.00;;;;;;5057297;28;20079;-65
2021/06/09 08:34:33;;;;;;;4.28;2.83;;;28.80;94.70;;;;;;5057226;28;20024;-65
2021/06/09 08:36:59;;;;;;;4.75;2.35;;;28.50;93.20;;;;;;5057038;28;20112;-65
2021/06/09 08:39:26;;;;;;;2.30;1.73;;;28.40;93.20;;;;;;5056614;28;20017;-65
2021/06/09 08:41:55;;;;;;;2.00;1.70;;;28.90;93.70;;;;;;5057253;28;20032;-65
2021/06/09 08:44:25;;;;;;;5.65;1.50;;;29.10;92.60;;;;;;5056968;28;20028;-65
2021/06/09 08:46:54;;;;;;;5.53;2.50;;;29.70;92.40;;;;;;5056807;28;20029;-65
2021/06/09 08:49:22;;;;;;;3.53;2.17;;;30.00;90.90;;;;;;5056702;28;20033;-65
2021/06/09 08:51:49;;;;;;;2.58;1.70;;;29.80;90.80;;;;;;5056810;28;20542;-65
2021/06/09 08:54:16;;;;;;;2.50;2.08;;;30.00;90.70;;;;;;5056407;28;20497;-65
2021/06/09 08:56:42;;;;;;;5.50;1.95;;;29.90;89.10;;;;;;5056750;28;20485;-65
2021/06/09 08:59:08;;;;;;;4.43;2.60;;;29.90;90.60;;;;;;5056782;28;20035;-65
2021/06/09 09:01:34;;;;;;;2.60;2.40;;;30.30;88.70;;;;;;5056912;28;20103;-65
2021/06/09 09:04:01;;;;;;;3.42;1.90;;;30.00;86.50;;;;;;5056531;28;20059;-65
2021/06/09 09:06:28;;;;;;;3.55;2.47;;;29.90;89.70;;;;;;5056384;28;20037;-65
2021/06/09 09:08:55;;;;;;;2.80;2.40;;;30.50;86.60;;;;;;5056151;28;20098;-65
2021/06/09 09:11:22;;;;;;;4.05;1.73;;;30.70;85.50;;;;;;5056454;28;20031;-65
2021/06/09 09:13:48;;;;;;;4.43;2.38;;;30.70;85.10;;;;;;5056362;28;20091;-65
2021/06/09 09:16:14;;;;;;;2.35;2.08;;;30.20;84.10;;;;;;5056549;28;20029;-65
2021/06/09 09:18:56;;;;;;;1.48;1.30;;;30.30;84.60;;;;;;5056296;28;20017;-65
2021/06/09 09:21:38;;;;;;;4.75;2.08;;;30.70;84.40;;;;;;5056576;28;20040;-65
2021/06/09 09:24:09;;;;;;;4.78;1.70;;;30.80;83.80;;;;;;5056033;28;20045;-65
2021/06/09 09:26:36;;;;;;;2.80;2.03;;;30.70;83.60;;;;;;5056236;28;20408;-65
2021/06/09 09:29:17;;;;;;;3.45;1.67;;;30.90;82.20;;;;;;5056618;28;20469;-65
2021/06/09 09:31:53;;;;;;;4.03;2.00;;;31.20;82.50;;;;;;5056135;28;20040;-65
2021/06/09 09:34:39;;;;;;;2.33;1.77;;;31.40;80.50;;;;;;5056227;28;20112;-65
2021/06/09 09:37:20;;;;;;;1.20;1.10;;;31.40;81.10;;;;;;5045239;28;20024;-65
2021/06/09 09:40:05;;;;;;;6.65;1.70;;;31.60;81.90;;;;;;5055892;28;20104;-65
2021/06/09 09:42:35;;;;;;;3.63;1.50;;;32.30;81.20;;;;;;5056270;28;20025;-65
2021/06/09 09:45:26;;;;;;;3.03;1.45;;;32.80;79.90;;;;;;5060328;28;20706;-65
2021/06/09 09:48:17;;;;;;;2.95;1.83;;;33.00;76.40;;;;;;5059868;28;20104;-65
2021/06/09 09:50:45;;;;;;;4.28;2.25;;;32.60;76.70;;;;;;5060160;28;20108;-65
2021/06/09 09:53:23;;;;;;;2.60;1.48;;;33.00;76.40;;;;;;5060035;28;20029;-65
2021/06/09 09:56:07;;;;;;;2.85;1.52;;;33.10;76.70;;;;;;5059616;28;20025;-65
2021/06/09 09:58:53;;;;;;;3.20;2.13;;;33.30;76.40;;;;;;5060272;28;20059;-65
2021/06/09 10:01:22;;;;;;;3.00;1.45;;;33.60;73.00;;;;;;5060001;28;20029;-65
2021/06/09 10:03:50;;;;;;;1.90;1.55;;;33.00;73.40;;;;;;5059747;28;20508;-65
2021/06/09 10:06:21;;;;;;;3.30;1.63;;;32.70;72.10;;;;;;5059738;28;20104;-65
2021/06/09 10:08:47;;;;;;;3.38;1.48;;;32.30;75.20;;;;;;5059522;28;20390;-65
2021/06/09 10:11:14;;;;;;;5.20;1.90;;;32.30;75.90;;;;;;5059798;28;20104;-65
2021/06/09 10:13:40;;;;;;;4.15;1.30;;;31.70;74.90;;;;;;5059687;28;20036;-65
2021/06/09 10:16:33;;;;;;;1.50;1.15;;;31.70;75.30;;;;;;5059795;28;20397;-65
2021/06/09 10:19:05;;;;;;;1.70;1.35;;;31.60;76.00;;;;;;5058444;28;20390;-65
2021/06/09 10:21:31;;;;;;;3.00;1.52;;;32.40;75.20;;;;;;5059586;28;20017;-65
2021/06/09 10:24:04;;;;;;;2.40;1.05;;;32.50;73.00;;;;;;5059101;28;20175;-65
2021/06/09 10:26:30;;;;;;;3.67;1.58;;;32.80;73.80;;;;;;5059221;28;20029;-65
2021/06/09 10:29:06;;;;;;;2.33;1.13;;;32.90;71.40;;;;;;5059400;28;20031;-65
2021/06/09 10:31:35;;;;;;;1.63;0.98;;;33.40;73.80;;;;;;5059387;28;20477;-65
2021/06/09 10:34:02;;;;;;;3.00;0.88;;;34.10;74.10;;;;;;5059409;28;20067;-65
2021/06/09 10:36:28;;;;;;;1.35;1.13;;;34.50;72.00;;;;;;5059070;28;20025;-65
2021/06/09 10:38:54;;;;;;;1.33;1.13;;;34.50;69.00;;;;;;5058969;28;20072;-65
2021/06/09 10:41:23;;;;;;;3.13;0.80;;;34.40;70.30;;;;;;5059204;28;20029;-65
2021/06/09 10:43:53;;;;;;;2.88;0.90;;;34.90;71.00;;;;;;5059209;28;20017;-65
2021/06/09 10:46:26;;;;;;;1.15;1.00;;;34.80;69.00;;;;;;5058867;28;20497;-65
2021/06/09 10:48:56;;;;;;;2.65;1.20;;;34.20;68.10;;;;;;5059104;28;20026;-65
2021/06/09 10:51:24;;;;;;;2.15;0.85;;;34.10;69.70;;;;;;5058820;28;20512;-65
2021/06/09 10:53:50;;;;;;;2.22;0.95;;;34.90;70.90;;;;;;5058539;28;20071;-65
2021/06/09 10:56:17;;;;;;;2.00;0.82;;;35.40;67.60;;;;;;5058718;28;20029;-65
2021/06/09 10:58:45;;;;;;;1.40;0.90;;;35.00;67.80;;;;;;5058866;28;20044;-65
2021/06/09 11:01:12;;;;;;;1.67;0.70;;;35.60;68.50;;;;;;5058727;28;20029;-65
2021/06/09 11:03:43;;;;;;;1.77;0.60;;;35.90;67.50;;;;;;5058737;28;20021;-65
2021/06/09 11:06:09;;;;;;;2.55;0.90;;;36.10;65.10;;;;;;5058455;28;20074;-65
2021/06/09 11:08:35;;;;;;;0.88;0.82;;;35.40;62.70;;;;;;5058633;28;20013;-65
2021/06/09 11:11:14;;;;;;;1.65;0.73;;;35.20;63.60;;;;;;5058417;28;20029;-65
2021/06/09 11:13:45;;;;;;;1.23;0.80;;;34.90;64.80;;;;;;5058471;28;20036;-65
2021/06/09 11:16:13;;;;;;;1.58;1.10;;;34.60;65.00;;;;;;5058376;28;20029;-65
2021/06/09 11:18:41;;;;;;;1.05;0.70;;;35.10;63.40;;;;;;5058271;28;20498;-65
2021/06/09 11:21:15;;;;;;;2.00;0.85;;;35.60;63.60;;;;;;5058715;28;20029;-65
2021/06/09 11:23:41;;;;;;;1.95;1.45;;;35.90;63.20;;;;;;5058065;28;20037;-65
2021/06/09 11:26:24;;;;;;;1.33;0.57;;;36.10;61.40;;;;;;5058090;28;20021;-65
2021/06/09 11:28:50;;;;;;;2.47;0.60;;;36.00;61.40;;;;;;5058592;28;20028;-65
2021/06/09 11:31:27;;;;;;;1.20;0.65;;;36.10;62.80;;;;;;5058442;28;20470;-65
2021/06/09 11:33:59;;;;;;;0.75;0.45;;;36.40;62.60;;;;;;5058368;28;20087;-65
2021/06/09 11:36:29;;;;;;;1.20;0.50;;;36.90;63.60;;;;;;5057958;28;20028;-65
2021/06/09 11:38:57;;;;;;;1.05;0.50;;;37.40;62.80;;;;;;5057692;28;20055;-65
2021/06/09 11:41:24;;;;;;;2.25;0.73;;;37.60;61.60;;;;;;5058166;28;20091;-65
2021/06/09 11:43:55;;;;;;;1.23;0.50;;;37.90;61.40;;;;;;5057994;28;20049;-65
2021/06/09 11:46:23;;;;;;;1.17;0.60;;;37.90;56.50;;;;;;5057844;28;20029;-65
2021/06/09 11:48:57;;;;;;;1.40;0.68;;;37.00;58.10;;;;;;5057949;28;20017;-65
2021/06/09 11:51:26;;;;;;;4.10;0.75;;;36.50;57.50;;;;;;5057683;28;20051;-65
2021/06/09 11:53:56;;;;;;;0.43;0.38;;;36.50;58.00;;;;;;5057639;28;20028;-65
2021/06/09 11:56:29;;;;;;;1.75;0.63;;;35.60;58.60;;;;;;5057749;28;20036;-65
2021/06/09 11:59:05;;;;;;;1.88;0.63;;;33.70;58.30;;;;;;5057823;28;20469;-65
2021/06/09 12:01:42;;;;;;;1.02;0.88;;;32.20;62.80;;;;;;5057916;28;20120;-65
2021/06/09 12:04:41;;;;;;;0.95;0.63;;;32.20;65.00;;;;;;5057486;28;20025;-65
2021/06/09 12:07:07;;;;;;;1.17;0.55;;;33.00;64.10;;;;;;5056294;28;20462;-65
2021/06/09 12:09:39;;;;;;;1.80;0.55;;;34.00;63.00;;;;;;5057305;28;20043;-65
2021/06/09 12:12:15;;;;;;;0.50;0.30;;;34.60;60.50;;;;;;5057399;28;20032;-65
2021/06/09 12:14:47;;;;;;;1.52;0.70;;;35.20;60.50;;;;;;5057489;28;20060;-65
2021/06/09 12:17:18;;;;;;;1.63;0.70;;;35.80;58.20;;;;;;5057174;28;20021;-65
2021/06/09 12:19:57;;;;;;;0.95;0.60;;;35.80;56.80;;;;;;5057258;28;20032;-65
2021/06/09 12:22:25;;;;;;;1.23;0.50;;;36.10;57.50;;;;;;5057200;28;20033;-65
2021/06/09 12:25:11;;;;;;;0.50;0.50;;;36.80;58.00;;;;;;5056613;28;20052;-65
2021/06/09 12:27:40;;;;;;;1.30;0.40;;;37.00;56.40;;;;;;5057177;28;20107;-65
2021/06/09 12:30:18;;;;;;;0.95;0.40;;;37.10;55.80;;;;;;5057195;28;20049;-65
2021/06/09 12:32:44;;;;;;;1.10;0.40;;;37.30;56.90;;;;;;5057214;28;20112;-65
2021/06/09 12:35:13;;;;;;;3.30;0.52;;;37.90;56.10;;;;;;5056828;28;20021;-65
2021/06/09 12:37:46;;;;;;;0.80;0.50;;;38.50;54.80;;;;;;5057151;28;20109;-66
2021/06/09 12:40:19;;;;;;;0.40;0.40;;;38.70;55.50;;;;;;5056805;28;20017;-65
2021/06/09 12:43:00;;;;;;;1.75;0.30;;;39.00;54.10;;;;;;5056878;28;20474;-66
2021/06/09 12:45:27;;;;;;;2.15;0.50;;;38.80;52.70;;;;;;5057042;28;20025;-66
2021/06/09 12:47:56;;;;;;;5.80;0.40;;;38.60;52.80;;;;;;5056738;28;20032;-65
2021/06/09 12:50:27;;;;;;;1.15;0.28;;;38.70;51.30;;;;;;5056877;28;20048;-65
2021/06/09 12:53:00;;;;;;;1.10;0.50;;;38.70;50.50;;;;;;5057049;28;20049;-65
2021/06/09 12:55:34;;;;;;;1.30;0.40;;;38.50;49.50;;;;;;5056542;28;20863;-65
2021/06/09 12:58:04;;;;;;;1.20;0.57;;;37.90;52.20;;;;;;5056832;28;20061;-66
2021/06/09 13:00:49;;;;;;;0.65;0.52;;;37.70;51.20;;;;;;5056754;28;20106;-65
2021/06/09 13:03:24;;;;;;;1.30;0.65;;;37.30;51.90;;;;;;5056832;28;20032;-65
2021/06/09 13:06:30;;;;;;;0.93;0.40;;;37.10;51.80;;;;;;5056571;28;20491;-66